sensor_id;sensor_type;location;lat;lon;timestamp;P1;durP1;ratioP1;P2;durP2;ratioP2
33824;SDS011;20127;48.962;8.342;2023-08-21T00:00:29;9.63;;;8.57;;
33824;SDS011;20127;48.962;8.342;2023-08-21T00:03:31;10.18;;;8.77;;
33824;SDS011;20127;48.962;8.342;2023-08-21T00:06:35;11.25;;;9.35;;
33824;SDS011;20127;48.962;8.342;2023-08-21T00:09:37;15.30;;;9.27;;
33824;SDS011;20127;48.962;8.342;2023-08-21T00:12:38;10.90;;;9.70;;
33824;SDS011;20127;48.962;8.342;2023-08-21T00:15:40;11.73;;;9.10;;
33824;SDS011;20127;48.962;8.342;2023-08-21T00:18:42;8.48;;;7.53;;
33824;SDS011;20127;48.962;8.342;2023-08-21T00:21:45;13.68;;;9.02;;
33824;SDS011;20127;48.962;8.342;2023-08-21T00:24:47;13.45;;;10.68;;
33824;SDS011;20127;48.962;8.342;2023-08-21T00:27:48;10.82;;;8.60;;
33824;SDS011;20127;48.962;8.342;2023-08-21T00:30:50;10.80;;;9.75;;
33824;SDS011;20127;48.962;8.342;2023-08-21T00:33:52;12.57;;;8.27;;
33824;SDS011;20127;48.962;8.342;2023-08-21T00:36:55;10.23;;;8.80;;
33824;SDS011;20127;48.962;8.342;2023-08-21T00:39:56;16.73;;;9.50;;
33824;SDS011;20127;48.962;8.342;2023-08-21T00:42:58;14.82;;;9.90;;
33824;SDS011;20127;48.962;8.342;2023-08-21T00:46:00;11.57;;;9.60;;
33824;SDS011;20127;48.962;8.342;2023-08-21T00:49:02;12.32;;;9.20;;
33824;SDS011;20127;48.962;8.342;2023-08-21T00:52:07;12.23;;;8.13;;
33824;SDS011;20127;48.962;8.342;2023-08-21T00:55:11;11.90;;;8.90;;
33824;SDS011;20127;48.962;8.342;2023-08-21T00:58:14;9.32;;;8.52;;
33824;SDS011;20127;48.962;8.342;2023-08-21T01:01:18;9.48;;;8.68;;
33824;SDS011;20127;48.962;8.342;2023-08-21T01:04:22;10.60;;;8.98;;
33824;SDS011;20127;48.962;8.342;2023-08-21T01:07:25;10.15;;;9.18;;
33824;SDS011;20127;48.962;8.342;2023-08-21T01:10:30;11.70;;;9.52;;
33824;SDS011;20127;48.962;8.342;2023-08-21T01:13:42;12.07;;;9.00;;
33824;SDS011;20127;48.962;8.342;2023-08-21T01:16:50;12.88;;;9.82;;
33824;SDS011;20127;48.962;8.342;2023-08-21T01:19:56;9.73;;;8.73;;
33824;SDS011;20127;48.962;8.342;2023-08-21T01:23:04;9.82;;;8.40;;
33824;SDS011;20127;48.962;8.342;2023-08-21T01:26:08;9.98;;;8.95;;
33824;SDS011;20127;48.962;8.342;2023-08-21T01:29:09;9.75;;;8.80;;
33824;SDS011;20127;48.962;8.342;2023-08-21T01:32:12;9.70;;;8.75;;
33824;SDS011;20127;48.962;8.342;2023-08-21T01:35:18;16.30;;;9.73;;
33824;SDS011;20127;48.962;8.342;2023-08-21T01:38:21;12.30;;;8.57;;
33824;SDS011;20127;48.962;8.342;2023-08-21T01:41:24;12.38;;;9.30;;
33824;SDS011;20127;48.962;8.342;2023-08-21T01:44:26;10.88;;;9.68;;
33824;SDS011;20127;48.962;8.342;2023-08-21T01:47:28;14.60;;;9.57;;
33824;SDS011;20127;48.962;8.342;2023-08-21T01:50:30;10.13;;;8.65;;
33824;SDS011;20127;48.962;8.342;2023-08-21T01:53:32;10.23;;;9.20;;
33824;SDS011;20127;48.962;8.342;2023-08-21T01:56:35;13.32;;;9.25;;
33824;SDS011;20127;48.962;8.342;2023-08-21T01:59:36;9.45;;;8.57;;
33824;SDS011;20127;48.962;8.342;2023-08-21T02:02:38;11.68;;;9.23;;
33824;SDS011;20127;48.962;8.342;2023-08-21T02:05:40;12.45;;;9.15;;
33824;SDS011;20127;48.962;8.342;2023-08-21T02:08:42;13.52;;;9.07;;
33824;SDS011;20127;48.962;8.342;2023-08-21T02:11:45;11.25;;;10.15;;
33824;SDS011;20127;48.962;8.342;2023-08-21T02:14:46;9.80;;;8.82;;
33824;SDS011;20127;48.962;8.342;2023-08-21T02:17:48;8.90;;;8.05;;
33824;SDS011;20127;48.962;8.342;2023-08-21T02:20:50;9.10;;;8.30;;
33824;SDS011;20127;48.962;8.342;2023-08-21T02:23:51;14.20;;;9.43;;
33824;SDS011;20127;48.962;8.342;2023-08-21T02:26:54;11.85;;;9.63;;
33824;SDS011;20127;48.962;8.342;2023-08-21T02:29:56;11.02;;;9.77;;
33824;SDS011;20127;48.962;8.342;2023-08-21T02:32:58;10.63;;;9.02;;
33824;SDS011;20127;48.962;8.342;2023-08-21T02:36:00;12.57;;;9.85;;
33824;SDS011;20127;48.962;8.342;2023-08-21T02:39:03;8.95;;;8.15;;
33824;SDS011;20127;48.962;8.342;2023-08-21T02:42:07;11.25;;;10.10;;
33824;SDS011;20127;48.962;8.342;2023-08-21T02:45:09;9.55;;;8.50;;
33824;SDS011;20127;48.962;8.342;2023-08-21T02:48:11;11.55;;;10.25;;
33824;SDS011;20127;48.962;8.342;2023-08-21T02:51:12;11.63;;;8.40;;
33824;SDS011;20127;48.962;8.342;2023-08-21T02:54:14;12.65;;;10.40;;
33824;SDS011;20127;48.962;8.342;2023-08-21T02:57:17;12.65;;;9.27;;
33824;SDS011;20127;48.962;8.342;2023-08-21T03:00:19;9.02;;;8.13;;
33824;SDS011;20127;48.962;8.342;2023-08-21T03:03:21;9.52;;;8.57;;
33824;SDS011;20127;48.962;8.342;2023-08-21T03:06:22;10.15;;;9.23;;
33824;SDS011;20127;48.962;8.342;2023-08-21T03:09:24;10.50;;;9.13;;
33824;SDS011;20127;48.962;8.342;2023-08-21T03:12:27;13.15;;;9.27;;
33824;SDS011;20127;48.962;8.342;2023-08-21T03:15:29;11.88;;;8.98;;
33824;SDS011;20127;48.962;8.342;2023-08-21T03:18:31;10.60;;;8.68;;
33824;SDS011;20127;48.962;8.342;2023-08-21T03:21:33;9.20;;;8.38;;
33824;SDS011;20127;48.962;8.342;2023-08-21T03:24:35;10.80;;;9.70;;
33824;SDS011;20127;48.962;8.342;2023-08-21T03:27:38;11.82;;;8.15;;
33824;SDS011;20127;48.962;8.342;2023-08-21T03:30:40;11.63;;;8.52;;
33824;SDS011;20127;48.962;8.342;2023-08-21T03:33:42;9.90;;;8.73;;
33824;SDS011;20127;48.962;8.342;2023-08-21T03:36:44;9.63;;;8.68;;
33824;SDS011;20127;48.962;8.342;2023-08-21T03:39:45;9.55;;;8.73;;
33824;SDS011;20127;48.962;8.342;2023-08-21T03:42:48;12.02;;;9.13;;
33824;SDS011;20127;48.962;8.342;2023-08-21T03:45:50;8.82;;;7.93;;
33824;SDS011;20127;48.962;8.342;2023-08-21T03:48:51;9.93;;;9.00;;
33824;SDS011;20127;48.962;8.342;2023-08-21T03:51:53;9.77;;;8.27;;
33824;SDS011;20127;48.962;8.342;2023-08-21T03:54:55;9.88;;;8.30;;
33824;SDS011;20127;48.962;8.342;2023-08-21T03:57:58;12.20;;;9.73;;
33824;SDS011;20127;48.962;8.342;2023-08-21T04:00:59;10.02;;;9.13;;
33824;SDS011;20127;48.962;8.342;2023-08-21T04:04:01;10.93;;;9.82;;
33824;SDS011;20127;48.962;8.342;2023-08-21T04:07:03;11.30;;;9.02;;
33824;SDS011;20127;48.962;8.342;2023-08-21T04:10:06;11.50;;;8.77;;
33824;SDS011;20127;48.962;8.342;2023-08-21T04:13:09;9.38;;;8.48;;
33824;SDS011;20127;48.962;8.342;2023-08-21T04:16:11;15.15;;;8.80;;
33824;SDS011;20127;48.962;8.342;2023-08-21T04:19:14;9.75;;;8.75;;
33824;SDS011;20127;48.962;8.342;2023-08-21T04:22:16;12.18;;;8.55;;
33824;SDS011;20127;48.962;8.342;2023-08-21T04:25:17;11.65;;;9.98;;
33824;SDS011;20127;48.962;8.342;2023-08-21T04:28:20;9.95;;;8.93;;
33824;SDS011;20127;48.962;8.342;2023-08-21T04:31:22;10.50;;;9.45;;
33824;SDS011;20127;48.962;8.342;2023-08-21T04:34:24;12.93;;;10.02;;
33824;SDS011;20127;48.962;8.342;2023-08-21T04:37:25;9.98;;;9.02;;
33824;SDS011;20127;48.962;8.342;2023-08-21T04:40:27;12.02;;;8.02;;
33824;SDS011;20127;48.962;8.342;2023-08-21T04:43:30;11.50;;;9.15;;
33824;SDS011;20127;48.962;8.342;2023-08-21T04:46:32;9.52;;;8.63;;
33824;SDS011;20127;48.962;8.342;2023-08-21T04:49:33;11.55;;;9.35;;
33824;SDS011;20127;48.962;8.342;2023-08-21T04:52:35;18.23;;;11.40;;
33824;SDS011;20127;48.962;8.342;2023-08-21T04:55:36;10.32;;;9.30;;
33824;SDS011;20127;48.962;8.342;2023-08-21T04:58:41;10.77;;;8.48;;
33824;SDS011;20127;48.962;8.342;2023-08-21T05:01:43;16.55;;;9.90;;
33824;SDS011;20127;48.962;8.342;2023-08-21T05:04:45;13.27;;;9.48;;
33824;SDS011;20127;48.962;8.342;2023-08-21T05:07:46;12.63;;;8.38;;
33824;SDS011;20127;48.962;8.342;2023-08-21T05:10:48;9.25;;;8.35;;
33824;SDS011;20127;48.962;8.342;2023-08-21T05:13:56;13.18;;;7.97;;
33824;SDS011;20127;48.962;8.342;2023-08-21T05:16:57;8.88;;;8.00;;
33824;SDS011;20127;48.962;8.342;2023-08-21T05:19:59;10.25;;;7.15;;
33824;SDS011;20127;48.962;8.342;2023-08-21T05:23:01;10.73;;;7.65;;
33824;SDS011;20127;48.962;8.342;2023-08-21T05:26:04;8.80;;;7.53;;
33824;SDS011;20127;48.962;8.342;2023-08-21T05:29:07;10.25;;;8.25;;
33824;SDS011;20127;48.962;8.342;2023-08-21T05:32:08;10.82;;;7.60;;
33824;SDS011;20127;48.962;8.342;2023-08-21T05:35:10;14.98;;;8.25;;
33824;SDS011;20127;48.962;8.342;2023-08-21T05:38:12;7.97;;;6.15;;
33824;SDS011;20127;48.962;8.342;2023-08-21T05:41:13;9.18;;;6.90;;
33824;SDS011;20127;48.962;8.342;2023-08-21T05:44:16;7.20;;;5.95;;
33824;SDS011;20127;48.962;8.342;2023-08-21T05:47:18;9.40;;;7.55;;
33824;SDS011;20127;48.962;8.342;2023-08-21T05:50:20;10.32;;;6.85;;
33824;SDS011;20127;48.962;8.342;2023-08-21T05:53:22;8.60;;;6.82;;
33824;SDS011;20127;48.962;8.342;2023-08-21T05:56:23;11.07;;;7.03;;
33824;SDS011;20127;48.962;8.342;2023-08-21T05:59:30;11.35;;;6.05;;
33824;SDS011;20127;48.962;8.342;2023-08-21T06:02:33;9.35;;;7.03;;
33824;SDS011;20127;48.962;8.342;2023-08-21T06:05:35;11.88;;;6.50;;
33824;SDS011;20127;48.962;8.342;2023-08-21T06:08:37;6.90;;;6.22;;
33824;SDS011;20127;48.962;8.342;2023-08-21T06:11:38;7.75;;;6.90;;
33824;SDS011;20127;48.962;8.342;2023-08-21T06:14:41;12.55;;;7.68;;
33824;SDS011;20127;48.962;8.342;2023-08-21T06:17:43;9.98;;;7.25;;
33824;SDS011;20127;48.962;8.342;2023-08-21T06:20:45;10.95;;;7.25;;
33824;SDS011;20127;48.962;8.342;2023-08-21T06:23:46;9.73;;;7.40;;
33824;SDS011;20127;48.962;8.342;2023-08-21T06:26:48;7.15;;;6.45;;
33824;SDS011;20127;48.962;8.342;2023-08-21T06:29:51;10.65;;;6.18;;
33824;SDS011;20127;48.962;8.342;2023-08-21T06:32:53;8.43;;;7.22;;
33824;SDS011;20127;48.962;8.342;2023-08-21T06:35:54;9.00;;;7.32;;
33824;SDS011;20127;48.962;8.342;2023-08-21T06:38:56;7.15;;;6.53;;
33824;SDS011;20127;48.962;8.342;2023-08-21T06:41:58;7.57;;;6.78;;
33824;SDS011;20127;48.962;8.342;2023-08-21T06:45:02;7.60;;;6.90;;
33824;SDS011;20127;48.962;8.342;2023-08-21T06:48:04;7.35;;;6.65;;
33824;SDS011;20127;48.962;8.342;2023-08-21T06:51:06;9.00;;;7.65;;
33824;SDS011;20127;48.962;8.342;2023-08-21T06:54:08;9.68;;;7.57;;
33824;SDS011;20127;48.962;8.342;2023-08-21T06:57:10;7.28;;;6.55;;
33824;SDS011;20127;48.962;8.342;2023-08-21T07:00:13;8.88;;;7.03;;
33824;SDS011;20127;48.962;8.342;2023-08-21T07:03:15;8.10;;;7.15;;
33824;SDS011;20127;48.962;8.342;2023-08-21T07:06:17;8.55;;;7.57;;
33824;SDS011;20127;48.962;8.342;2023-08-21T07:09:19;9.15;;;6.50;;
33824;SDS011;20127;48.962;8.342;2023-08-21T07:12:21;7.40;;;6.70;;
33824;SDS011;20127;48.962;8.342;2023-08-21T07:15:25;9.43;;;7.30;;
33824;SDS011;20127;48.962;8.342;2023-08-21T07:18:26;15.52;;;9.63;;
33824;SDS011;20127;48.962;8.342;2023-08-21T07:21:28;8.90;;;6.53;;
33824;SDS011;20127;48.962;8.342;2023-08-21T07:24:30;8.02;;;7.22;;
33824;SDS011;20127;48.962;8.342;2023-08-21T07:27:31;9.95;;;7.30;;
33824;SDS011;20127;48.962;8.342;2023-08-21T07:30:36;8.70;;;7.80;;
33824;SDS011;20127;48.962;8.342;2023-08-21T07:33:38;10.32;;;7.85;;
33824;SDS011;20127;48.962;8.342;2023-08-21T07:36:39;11.90;;;8.50;;
33824;SDS011;20127;48.962;8.342;2023-08-21T07:39:41;9.88;;;7.63;;
33824;SDS011;20127;48.962;8.342;2023-08-21T07:42:43;11.90;;;8.63;;
33824;SDS011;20127;48.962;8.342;2023-08-21T07:45:46;13.23;;;8.35;;
33824;SDS011;20127;48.962;8.342;2023-08-21T07:48:49;9.75;;;7.85;;
33824;SDS011;20127;48.962;8.342;2023-08-21T07:51:51;8.15;;;7.32;;
33824;SDS011;20127;48.962;8.342;2023-08-21T07:54:53;8.10;;;7.32;;
33824;SDS011;20127;48.962;8.342;2023-08-21T07:57:54;8.55;;;7.85;;
33824;SDS011;20127;48.962;8.342;2023-08-21T08:00:58;9.98;;;7.57;;
33824;SDS011;20127;48.962;8.342;2023-08-21T08:04:00;6.82;;;6.13;;
33824;SDS011;20127;48.962;8.342;2023-08-21T08:07:01;14.80;;;8.43;;
33824;SDS011;20127;48.962;8.342;2023-08-21T08:10:03;8.88;;;7.70;;
33824;SDS011;20127;48.962;8.342;2023-08-21T08:13:05;15.27;;;7.15;;
33824;SDS011;20127;48.962;8.342;2023-08-21T08:16:09;8.38;;;7.55;;
33824;SDS011;20127;48.962;8.342;2023-08-21T08:19:11;12.63;;;8.65;;
33824;SDS011;20127;48.962;8.342;2023-08-21T08:22:13;8.50;;;7.40;;
33824;SDS011;20127;48.962;8.342;2023-08-21T08:25:14;11.55;;;8.55;;
33824;SDS011;20127;48.962;8.342;2023-08-21T08:28:17;8.48;;;7.70;;
33824;SDS011;20127;48.962;8.342;2023-08-21T08:31:20;7.85;;;7.10;;
33824;SDS011;20127;48.962;8.342;2023-08-21T08:34:23;10.15;;;7.57;;
33824;SDS011;20127;48.962;8.342;2023-08-21T08:37:25;11.27;;;8.38;;
33824;SDS011;20127;48.962;8.342;2023-08-21T08:40:27;9.65;;;7.20;;
33824;SDS011;20127;48.962;8.342;2023-08-21T08:43:29;8.18;;;7.38;;
33824;SDS011;20127;48.962;8.342;2023-08-21T08:46:33;10.30;;;6.65;;
33824;SDS011;20127;48.962;8.342;2023-08-21T08:49:37;7.78;;;6.90;;
33824;SDS011;20127;48.962;8.342;2023-08-21T08:52:39;11.18;;;7.10;;
33824;SDS011;20127;48.962;8.342;2023-08-21T08:55:41;9.48;;;7.32;;
33824;SDS011;20127;48.962;8.342;2023-08-21T08:58:43;11.88;;;7.22;;
33824;SDS011;20127;48.962;8.342;2023-08-21T09:01:46;7.53;;;6.82;;
33824;SDS011;20127;48.962;8.342;2023-08-21T09:04:48;8.90;;;8.13;;
33824;SDS011;20127;48.962;8.342;2023-08-21T09:08:01;11.80;;;6.88;;
33824;SDS011;20127;48.962;8.342;2023-08-21T09:11:04;9.38;;;7.60;;
33824;SDS011;20127;48.962;8.342;2023-08-21T09:14:06;10.48;;;8.57;;
33824;SDS011;20127;48.962;8.342;2023-08-21T09:17:09;7.85;;;6.35;;
33824;SDS011;20127;48.962;8.342;2023-08-21T09:20:11;11.23;;;7.45;;
33824;SDS011;20127;48.962;8.342;2023-08-21T09:23:14;7.35;;;6.63;;
33824;SDS011;20127;48.962;8.342;2023-08-21T09:26:20;10.32;;;8.35;;
33824;SDS011;20127;48.962;8.342;2023-08-21T09:29:22;9.23;;;7.07;;
33824;SDS011;20127;48.962;8.342;2023-08-21T09:32:25;8.45;;;7.65;;
33824;SDS011;20127;48.962;8.342;2023-08-21T09:35:27;9.15;;;7.22;;
33824;SDS011;20127;48.962;8.342;2023-08-21T09:38:28;8.80;;;6.63;;
33824;SDS011;20127;48.962;8.342;2023-08-21T09:41:30;11.00;;;6.57;;
33824;SDS011;20127;48.962;8.342;2023-08-21T09:44:35;8.63;;;6.80;;
33824;SDS011;20127;48.962;8.342;2023-08-21T09:47:39;8.18;;;6.68;;
33824;SDS011;20127;48.962;8.342;2023-08-21T09:50:41;10.32;;;6.75;;
33824;SDS011;20127;48.962;8.342;2023-08-21T09:53:44;7.13;;;6.32;;
33824;SDS011;20127;48.962;8.342;2023-08-21T09:56:46;10.35;;;7.78;;
33824;SDS011;20127;48.962;8.342;2023-08-21T09:59:50;9.63;;;6.78;;
33824;SDS011;20127;48.962;8.342;2023-08-21T10:02:55;8.93;;;6.25;;
33824;SDS011;20127;48.962;8.342;2023-08-21T10:06:02;7.07;;;6.45;;
33824;SDS011;20127;48.962;8.342;2023-08-21T10:09:06;7.25;;;5.80;;
33824;SDS011;20127;48.962;8.342;2023-08-21T10:12:09;6.40;;;5.82;;
33824;SDS011;20127;48.962;8.342;2023-08-21T10:15:12;7.05;;;6.03;;
33824;SDS011;20127;48.962;8.342;2023-08-21T10:18:22;6.18;;;5.43;;
33824;SDS011;20127;48.962;8.342;2023-08-21T10:21:25;7.95;;;6.53;;
33824;SDS011;20127;48.962;8.342;2023-08-21T10:24:27;5.93;;;5.38;;
33824;SDS011;20127;48.962;8.342;2023-08-21T10:27:29;6.55;;;5.97;;
33824;SDS011;20127;48.962;8.342;2023-08-21T10:30:31;5.70;;;5.07;;
33824;SDS011;20127;48.962;8.342;2023-08-21T10:33:47;8.48;;;6.53;;
33824;SDS011;20127;48.962;8.342;2023-08-21T10:40:10;9.45;;;6.25;;
33824;SDS011;20127;48.962;8.342;2023-08-21T10:43:39;7.55;;;6.30;;
33824;SDS011;20127;48.962;8.342;2023-08-21T10:50:19;6.22;;;5.22;;
33824;SDS011;20127;48.962;8.342;2023-08-21T10:53:21;6.90;;;6.30;;
33824;SDS011;20127;48.962;8.342;2023-08-21T10:56:25;6.38;;;5.75;;
33824;SDS011;20127;48.962;8.342;2023-08-21T10:59:27;10.10;;;5.85;;
33824;SDS011;20127;48.962;8.342;2023-08-21T11:02:29;5.60;;;5.10;;
33824;SDS011;20127;48.962;8.342;2023-08-21T11:05:33;5.78;;;4.07;;
33824;SDS011;20127;48.962;8.342;2023-08-21T11:08:35;9.68;;;4.50;;
33824;SDS011;20127;48.962;8.342;2023-08-21T11:11:37;5.72;;;5.13;;
33824;SDS011;20127;48.962;8.342;2023-08-21T11:14:39;5.72;;;4.57;;
33824;SDS011;20127;48.962;8.342;2023-08-21T11:17:41;4.35;;;3.85;;
33824;SDS011;20127;48.962;8.342;2023-08-21T11:20:44;8.77;;;5.00;;
33824;SDS011;20127;48.962;8.342;2023-08-21T11:23:46;5.18;;;4.32;;
33824;SDS011;20127;48.962;8.342;2023-08-21T11:26:49;8.27;;;3.72;;
33824;SDS011;20127;48.962;8.342;2023-08-21T11:29:51;5.05;;;4.30;;
33824;SDS011;20127;48.962;8.342;2023-08-21T11:36:12;6.93;;;4.47;;
33824;SDS011;20127;48.962;8.342;2023-08-21T11:39:13;5.38;;;4.57;;
33824;SDS011;20127;48.962;8.342;2023-08-21T11:42:15;10.35;;;5.65;;
33824;SDS011;20127;48.962;8.342;2023-08-21T11:45:19;6.28;;;4.25;;
33824;SDS011;20127;48.962;8.342;2023-08-21T11:48:22;6.30;;;4.57;;
33824;SDS011;20127;48.962;8.342;2023-08-21T11:51:25;5.00;;;4.38;;
33824;SDS011;20127;48.962;8.342;2023-08-21T11:54:31;4.85;;;4.40;;
33824;SDS011;20127;48.962;8.342;2023-08-21T11:57:35;8.77;;;3.95;;
33824;SDS011;20127;48.962;8.342;2023-08-21T12:00:46;6.00;;;4.80;;
33824;SDS011;20127;48.962;8.342;2023-08-21T12:03:48;12.55;;;4.97;;
33824;SDS011;20127;48.962;8.342;2023-08-21T12:06:56;5.63;;;4.93;;
33824;SDS011;20127;48.962;8.342;2023-08-21T12:09:57;6.85;;;4.88;;
33824;SDS011;20127;48.962;8.342;2023-08-21T12:12:59;7.53;;;4.72;;
33824;SDS011;20127;48.962;8.342;2023-08-21T12:16:01;8.18;;;6.25;;
33824;SDS011;20127;48.962;8.342;2023-08-21T12:19:02;8.05;;;5.20;;
33824;SDS011;20127;48.962;8.342;2023-08-21T12:22:05;8.63;;;6.13;;
33824;SDS011;20127;48.962;8.342;2023-08-21T12:25:07;7.45;;;5.40;;
33824;SDS011;20127;48.962;8.342;2023-08-21T12:28:10;8.02;;;5.15;;
33824;SDS011;20127;48.962;8.342;2023-08-21T12:31:12;6.85;;;5.03;;
33824;SDS011;20127;48.962;8.342;2023-08-21T12:34:14;6.68;;;4.43;;
33824;SDS011;20127;48.962;8.342;2023-08-21T12:37:17;9.93;;;5.45;;
33824;SDS011;20127;48.962;8.342;2023-08-21T12:40:19;8.38;;;5.90;;
33824;SDS011;20127;48.962;8.342;2023-08-21T12:43:21;11.25;;;5.10;;
33824;SDS011;20127;48.962;8.342;2023-08-21T12:46:23;7.53;;;6.10;;
33824;SDS011;20127;48.962;8.342;2023-08-21T12:49:26;5.93;;;5.32;;
33824;SDS011;20127;48.962;8.342;2023-08-21T12:52:29;6.22;;;5.15;;
33824;SDS011;20127;48.962;8.342;2023-08-21T12:55:30;9.88;;;4.28;;
33824;SDS011;20127;48.962;8.342;2023-08-21T12:58:32;5.78;;;4.35;;
33824;SDS011;20127;48.962;8.342;2023-08-21T13:01:34;5.97;;;4.30;;
33824;SDS011;20127;48.962;8.342;2023-08-21T13:04:37;8.65;;;4.05;;
33824;SDS011;20127;48.962;8.342;2023-08-21T13:07:40;7.75;;;4.72;;
33824;SDS011;20127;48.962;8.342;2023-08-21T13:10:42;6.22;;;5.03;;
33824;SDS011;20127;48.962;8.342;2023-08-21T13:13:44;8.18;;;4.45;;
33824;SDS011;20127;48.962;8.342;2023-08-21T13:16:46;12.18;;;4.57;;
33824;SDS011;20127;48.962;8.342;2023-08-21T13:19:47;4.85;;;4.38;;
33824;SDS011;20127;48.962;8.342;2023-08-21T13:22:51;5.13;;;4.07;;
33824;SDS011;20127;48.962;8.342;2023-08-21T13:25:53;11.23;;;4.10;;
33824;SDS011;20127;48.962;8.342;2023-08-21T13:28:55;5.32;;;4.43;;
33824;SDS011;20127;48.962;8.342;2023-08-21T13:31:57;9.77;;;4.35;;
33824;SDS011;20127;48.962;8.342;2023-08-21T13:34:58;9.93;;;4.30;;
33824;SDS011;20127;48.962;8.342;2023-08-21T13:38:01;4.57;;;3.85;;
33824;SDS011;20127;48.962;8.342;2023-08-21T13:41:03;6.72;;;3.90;;
33824;SDS011;20127;48.962;8.342;2023-08-21T13:44:05;8.05;;;4.18;;
33824;SDS011;20127;48.962;8.342;2023-08-21T13:47:07;5.68;;;4.47;;
33824;SDS011;20127;48.962;8.342;2023-08-21T13:50:09;10.10;;;4.45;;
33824;SDS011;20127;48.962;8.342;2023-08-21T13:53:13;4.90;;;3.53;;
33824;SDS011;20127;48.962;8.342;2023-08-21T13:56:14;5.05;;;4.30;;
33824;SDS011;20127;48.962;8.342;2023-08-21T13:59:16;9.68;;;3.85;;
33824;SDS011;20127;48.962;8.342;2023-08-21T14:02:18;4.63;;;3.50;;
33824;SDS011;20127;48.962;8.342;2023-08-21T14:05:19;4.32;;;3.28;;
33824;SDS011;20127;48.962;8.342;2023-08-21T14:08:23;4.43;;;3.92;;
33824;SDS011;20127;48.962;8.342;2023-08-21T14:11:24;3.63;;;3.33;;
33824;SDS011;20127;48.962;8.342;2023-08-21T14:14:26;6.65;;;4.60;;
33824;SDS011;20127;48.962;8.342;2023-08-21T14:17:28;3.58;;;3.28;;
33824;SDS011;20127;48.962;8.342;2023-08-21T14:20:29;7.32;;;3.92;;
33824;SDS011;20127;48.962;8.342;2023-08-21T14:23:33;4.75;;;3.60;;
33824;SDS011;20127;48.962;8.342;2023-08-21T14:26:34;4.95;;;3.35;;
33824;SDS011;20127;48.962;8.342;2023-08-21T14:29:39;3.95;;;3.42;;
33824;SDS011;20127;48.962;8.342;2023-08-21T14:32:40;4.85;;;3.80;;
33824;SDS011;20127;48.962;8.342;2023-08-21T14:35:42;5.57;;;3.67;;
33824;SDS011;20127;48.962;8.342;2023-08-21T14:38:45;3.97;;;3.38;;
33824;SDS011;20127;48.962;8.342;2023-08-21T14:41:47;4.07;;;3.38;;
33824;SDS011;20127;48.962;8.342;2023-08-21T14:44:54;6.65;;;3.75;;
33824;SDS011;20127;48.962;8.342;2023-08-21T14:47:55;4.35;;;3.20;;
33824;SDS011;20127;48.962;8.342;2023-08-21T14:50:57;3.95;;;2.92;;
33824;SDS011;20127;48.962;8.342;2023-08-21T14:54:00;4.15;;;3.10;;
33824;SDS011;20127;48.962;8.342;2023-08-21T14:57:02;4.13;;;2.80;;
33824;SDS011;20127;48.962;8.342;2023-08-21T15:00:04;2.95;;;2.75;;
33824;SDS011;20127;48.962;8.342;2023-08-21T15:03:08;8.35;;;3.60;;
33824;SDS011;20127;48.962;8.342;2023-08-21T15:06:09;10.25;;;3.35;;
33824;SDS011;20127;48.962;8.342;2023-08-21T15:09:12;6.18;;;3.45;;
33824;SDS011;20127;48.962;8.342;2023-08-21T15:12:14;6.38;;;3.28;;
33824;SDS011;20127;48.962;8.342;2023-08-21T15:15:16;8.43;;;3.85;;
33824;SDS011;20127;48.962;8.342;2023-08-21T15:18:20;5.10;;;3.35;;
33824;SDS011;20127;48.962;8.342;2023-08-21T15:21:22;4.53;;;2.97;;
33824;SDS011;20127;48.962;8.342;2023-08-21T15:24:25;4.80;;;3.83;;
33824;SDS011;20127;48.962;8.342;2023-08-21T15:27:26;3.72;;;3.20;;
33824;SDS011;20127;48.962;8.342;2023-08-21T15:30:28;5.75;;;4.13;;
33824;SDS011;20127;48.962;8.342;2023-08-21T15:33:30;7.55;;;4.20;;
33824;SDS011;20127;48.962;8.342;2023-08-21T15:36:31;8.00;;;4.13;;
33824;SDS011;20127;48.962;8.342;2023-08-21T15:39:34;8.40;;;3.75;;
33824;SDS011;20127;48.962;8.342;2023-08-21T15:42:36;4.72;;;3.95;;
33824;SDS011;20127;48.962;8.342;2023-08-21T15:45:38;6.70;;;3.70;;
33824;SDS011;20127;48.962;8.342;2023-08-21T15:48:39;4.32;;;3.92;;
33824;SDS011;20127;48.962;8.342;2023-08-21T15:51:41;3.85;;;3.42;;
33824;SDS011;20127;48.962;8.342;2023-08-21T15:54:46;5.00;;;4.35;;
33824;SDS011;20127;48.962;8.342;2023-08-21T15:57:51;4.07;;;3.78;;
33824;SDS011;20127;48.962;8.342;2023-08-21T16:00:52;8.93;;;4.65;;
33824;SDS011;20127;48.962;8.342;2023-08-21T16:03:54;6.40;;;4.38;;
33824;SDS011;20127;48.962;8.342;2023-08-21T16:06:56;4.95;;;4.18;;
33824;SDS011;20127;48.962;8.342;2023-08-21T16:09:59;5.47;;;4.05;;
33824;SDS011;20127;48.962;8.342;2023-08-21T16:13:01;7.63;;;3.88;;
33824;SDS011;20127;48.962;8.342;2023-08-21T16:16:03;5.07;;;4.07;;
33824;SDS011;20127;48.962;8.342;2023-08-21T16:19:05;5.70;;;4.18;;
33824;SDS011;20127;48.962;8.342;2023-08-21T16:22:06;9.05;;;4.70;;
33824;SDS011;20127;48.962;8.342;2023-08-21T16:25:09;7.38;;;5.43;;
33824;SDS011;20127;48.962;8.342;2023-08-21T16:28:12;4.38;;;3.97;;
33824;SDS011;20127;48.962;8.342;2023-08-21T16:31:14;4.97;;;4.47;;
33824;SDS011;20127;48.962;8.342;2023-08-21T16:34:17;5.43;;;4.70;;
33824;SDS011;20127;48.962;8.342;2023-08-21T16:37:18;7.90;;;4.07;;
33824;SDS011;20127;48.962;8.342;2023-08-21T16:40:21;7.13;;;4.22;;
33824;SDS011;20127;48.962;8.342;2023-08-21T16:43:24;4.75;;;4.13;;
33824;SDS011;20127;48.962;8.342;2023-08-21T16:46:26;5.82;;;5.03;;
33824;SDS011;20127;48.962;8.342;2023-08-21T16:49:27;7.78;;;5.57;;
33824;SDS011;20127;48.962;8.342;2023-08-21T16:52:29;8.18;;;4.38;;
33824;SDS011;20127;48.962;8.342;2023-08-21T16:55:32;7.13;;;5.05;;
33824;SDS011;20127;48.962;8.342;2023-08-21T16:58:34;7.55;;;4.18;;
33824;SDS011;20127;48.962;8.342;2023-08-21T17:01:35;5.50;;;4.18;;
33824;SDS011;20127;48.962;8.342;2023-08-21T17:04:37;7.40;;;5.05;;
33824;SDS011;20127;48.962;8.342;2023-08-21T17:07:39;6.28;;;4.90;;
33824;SDS011;20127;48.962;8.342;2023-08-21T17:10:43;6.03;;;4.00;;
33824;SDS011;20127;48.962;8.342;2023-08-21T17:13:45;6.28;;;4.75;;
33824;SDS011;20127;48.962;8.342;2023-08-21T17:16:49;11.77;;;4.35;;
33824;SDS011;20127;48.962;8.342;2023-08-21T17:19:51;9.15;;;5.03;;
33824;SDS011;20127;48.962;8.342;2023-08-21T17:22:53;5.25;;;4.50;;
33824;SDS011;20127;48.962;8.342;2023-08-21T17:25:56;6.45;;;4.35;;
33824;SDS011;20127;48.962;8.342;2023-08-21T17:28:58;7.13;;;5.05;;
33824;SDS011;20127;48.962;8.342;2023-08-21T17:32:08;6.18;;;5.57;;
33824;SDS011;20127;48.962;8.342;2023-08-21T17:35:11;5.50;;;5.00;;
33824;SDS011;20127;48.962;8.342;2023-08-21T17:38:13;6.68;;;5.50;;
33824;SDS011;20127;48.962;8.342;2023-08-21T17:41:16;8.32;;;5.35;;
33824;SDS011;20127;48.962;8.342;2023-08-21T17:44:17;7.43;;;5.47;;
33824;SDS011;20127;48.962;8.342;2023-08-21T17:47:19;5.47;;;4.78;;
33824;SDS011;20127;48.962;8.342;2023-08-21T17:50:21;8.13;;;5.82;;
33824;SDS011;20127;48.962;8.342;2023-08-21T17:53:23;5.88;;;5.38;;
33824;SDS011;20127;48.962;8.342;2023-08-21T17:56:26;7.15;;;5.25;;
33824;SDS011;20127;48.962;8.342;2023-08-21T17:59:28;7.53;;;5.45;;
33824;SDS011;20127;48.962;8.342;2023-08-21T18:02:30;5.55;;;4.97;;
33824;SDS011;20127;48.962;8.342;2023-08-21T18:05:31;6.00;;;5.35;;
33824;SDS011;20127;48.962;8.342;2023-08-21T18:08:33;6.75;;;5.75;;
33824;SDS011;20127;48.962;8.342;2023-08-21T18:11:36;8.55;;;5.78;;
33824;SDS011;20127;48.962;8.342;2023-08-21T18:14:38;7.70;;;5.55;;
33824;SDS011;20127;48.962;8.342;2023-08-21T18:17:42;5.90;;;4.93;;
33824;SDS011;20127;48.962;8.342;2023-08-21T18:20:47;5.70;;;5.20;;
33824;SDS011;20127;48.962;8.342;2023-08-21T18:23:51;6.95;;;6.22;;